createdAt,value
2022-08-29T00:02:06.385Z,8.80
2022-08-29T00:04:35.885Z,9.35
2022-08-29T00:07:03.548Z,8.23
2022-08-29T00:09:31.109Z,8.13
2022-08-29T00:11:58.732Z,8.32
2022-08-29T00:14:27.755Z,8.10
2022-08-29T00:16:55.603Z,8.13
2022-08-29T00:19:23.171Z,8.60
2022-08-29T00:21:51.354Z,9.02
2022-08-29T00:24:18.974Z,8.18
2022-08-29T00:26:46.516Z,8.80
2022-08-29T00:29:14.028Z,8.18
2022-08-29T00:31:42.975Z,8.82
2022-08-29T00:34:10.558Z,8.50
2022-08-29T00:36:38.158Z,8.52
2022-08-29T00:39:09.247Z,8.93
2022-08-29T00:41:36.991Z,8.65
2022-08-29T00:44:04.998Z,8.70
2022-08-29T00:46:46.203Z,9.30
2022-08-29T00:49:18.882Z,8.55
2022-08-29T00:51:47.747Z,8.55
2022-08-29T00:54:15.641Z,9.68
2022-08-29T00:56:44.437Z,9.10
2022-08-29T00:59:14.538Z,8.05
2022-08-29T01:01:42.252Z,8.98
2022-08-29T01:04:15.730Z,9.07
2022-08-29T01:06:53.920Z,10.27
2022-08-29T01:09:21.975Z,9.35
2022-08-29T01:12:07.370Z,8.80
2022-08-29T01:14:38.365Z,9.10
2022-08-29T01:17:07.612Z,8.80
2022-08-29T01:19:42.423Z,9.50
2022-08-29T01:22:14.628Z,9.10
2022-08-29T01:24:45.843Z,9.13
2022-08-29T01:27:14.131Z,9.40
2022-08-29T01:29:42.028Z,8.52
2022-08-29T01:32:09.548Z,8.82
2022-08-29T01:34:37.064Z,9.40
2022-08-29T01:37:05.598Z,9.32
2022-08-29T01:39:34.511Z,9.10
2022-08-29T01:42:05.638Z,8.40
2022-08-29T01:44:33.652Z,9.27
2022-08-29T01:47:03.337Z,8.77
2022-08-29T01:49:31.824Z,9.30
2022-08-29T01:51:59.749Z,8.57
2022-08-29T01:54:27.325Z,8.57
2022-08-29T01:56:55.542Z,9.00
2022-08-29T01:59:26.739Z,9.67
2022-08-29T02:01:55.454Z,9.57
2022-08-29T02:04:23.096Z,8.40
2022-08-29T02:06:50.697Z,8.97
2022-08-29T02:09:18.302Z,8.90
2022-08-29T02:11:46.490Z,9.27
2022-08-29T02:14:18.978Z,9.03
2022-08-29T02:16:48.873Z,9.37
2022-08-29T02:19:17.062Z,9.33
2022-08-29T02:21:44.586Z,8.77
2022-08-29T02:24:25.111Z,9.30
2022-08-29T02:26:53.989Z,9.57
2022-08-29T02:29:21.726Z,8.57
2022-08-29T02:31:50.777Z,9.30
2022-08-29T02:34:18.593Z,9.27
2022-08-29T02:36:49.135Z,8.97
2022-08-29T02:39:17.319Z,9.23
2022-08-29T02:41:44.848Z,9.93
2022-08-29T02:44:12.447Z,9.17
2022-08-29T02:46:40.013Z,9.20
2022-08-29T02:49:08.936Z,8.83
2022-08-29T02:51:36.609Z,9.60
2022-08-29T02:54:04.545Z,9.57
2022-08-29T02:56:32.031Z,9.23
2022-08-29T02:59:00.153Z,10.60
2022-08-29T03:01:28.476Z,10.17
2022-08-29T03:03:55.979Z,9.20
2022-08-29T03:06:24.941Z,8.80
2022-08-29T03:08:54.139Z,9.90
2022-08-29T03:11:22.074Z,8.90
2022-08-29T03:13:49.612Z,8.97
2022-08-29T03:16:17.440Z,10.20
2022-08-29T03:18:44.919Z,9.20
2022-08-29T03:21:15.948Z,8.90
2022-08-29T03:23:44.943Z,9.63
2022-08-29T03:26:12.419Z,9.80
2022-08-29T03:28:39.980Z,9.47
2022-08-29T03:31:07.621Z,8.90
2022-08-29T03:33:35.514Z,9.63
2022-08-29T03:36:03.359Z,10.03
2022-08-29T03:38:35.687Z,9.30
2022-08-29T03:41:04.619Z,9.17
2022-08-29T03:43:32.187Z,10.70
2022-08-29T03:45:59.702Z,10.43
2022-08-29T03:48:27.197Z,9.13
2022-08-29T03:50:56.572Z,9.73
2022-08-29T03:53:24.268Z,9.97
2022-08-29T03:55:52.008Z,8.77
2022-08-29T03:58:21.623Z,10.43
2022-08-29T04:00:49.210Z,10.30
2022-08-29T04:03:17.242Z,9.83
2022-08-29T04:05:45.024Z,10.60
2022-08-29T04:08:12.579Z,9.60
2022-08-29T04:10:40.151Z,9.50
2022-08-29T04:13:08.759Z,9.53
2022-08-29T04:15:38.392Z,9.10
2022-08-29T04:18:07.094Z,9.57
2022-08-29T04:20:36.114Z,10.17
2022-08-29T04:23:03.805Z,10.60
2022-08-29T04:25:37.106Z,9.70
2022-08-29T04:28:05.579Z,9.87
2022-08-29T04:30:33.074Z,8.53
2022-08-29T04:33:01.964Z,8.97
2022-08-29T04:35:29.889Z,9.90
2022-08-29T04:37:57.820Z,8.80
2022-08-29T04:40:25.681Z,9.10
2022-08-29T04:42:53.414Z,8.70
2022-08-29T04:45:22.490Z,8.60
2022-08-29T04:47:50.167Z,8.63
2022-08-29T04:50:20.669Z,8.87
2022-08-29T04:52:48.761Z,8.97
2022-08-29T04:55:21.317Z,9.00
2022-08-29T04:57:49.808Z,7.90
2022-08-29T05:00:18.724Z,8.97
2022-08-29T05:02:46.781Z,8.43
2022-08-29T05:05:15.191Z,9.20
2022-08-29T05:07:45.191Z,9.23
2022-08-29T05:10:14.597Z,8.90
2022-08-29T05:12:43.292Z,9.47
2022-08-29T05:15:11.726Z,9.67
2022-08-29T05:17:39.379Z,8.57
2022-08-29T05:20:08.004Z,9.77
2022-08-29T05:22:35.825Z,11.20
2022-08-29T05:25:06.260Z,10.43
2022-08-29T05:27:33.822Z,12.00
2022-08-29T05:30:01.974Z,8.33
2022-08-29T05:32:29.554Z,9.03
2022-08-29T05:34:57.627Z,8.47
2022-08-29T05:37:25.130Z,9.30
2022-08-29T05:39:52.821Z,8.83
2022-08-29T05:42:22.164Z,8.70
2022-08-29T05:44:49.935Z,7.60
2022-08-29T05:47:18.932Z,7.33
2022-08-29T05:49:46.887Z,7.83
2022-08-29T05:52:15.587Z,7.23
2022-08-29T05:54:43.972Z,7.70
2022-08-29T05:57:16.670Z,7.10
2022-08-29T05:59:48.029Z,6.93
2022-08-29T06:02:15.900Z,7.13
2022-08-29T06:04:43.882Z,7.50
2022-08-29T06:07:11.783Z,7.53
2022-08-29T06:09:40.747Z,7.97
2022-08-29T06:12:08.931Z,7.00
2022-08-29T06:14:36.444Z,6.40
2022-08-29T06:17:06.205Z,6.43
2022-08-29T06:19:36.435Z,6.37
2022-08-29T06:22:05.722Z,6.60
2022-08-29T06:24:38.083Z,6.37
2022-08-29T06:27:05.801Z,6.17
2022-08-29T06:29:38.461Z,5.87
2022-08-29T06:32:13.111Z,6.43
2022-08-29T06:34:40.633Z,6.87
2022-08-29T06:37:08.144Z,5.50
2022-08-29T06:39:35.654Z,5.88
2022-08-29T06:42:03.142Z,6.30
2022-08-29T06:44:31.277Z,5.22
2022-08-29T06:46:59.168Z,4.65
2022-08-29T06:49:28.607Z,4.20
2022-08-29T06:51:58.452Z,4.28
2022-08-29T06:54:28.036Z,3.83
2022-08-29T06:56:56.423Z,3.50
2022-08-29T06:59:23.928Z,3.75
2022-08-29T07:01:51.507Z,3.78
2022-08-29T07:04:20.677Z,3.75
2022-08-29T07:06:50.316Z,2.80
2022-08-29T07:09:17.808Z,3.40
2022-08-29T07:11:45.387Z,2.90
2022-08-29T07:14:13.496Z,4.32
2022-08-29T07:16:41.596Z,3.55
2022-08-29T07:19:10.150Z,3.25
2022-08-29T07:21:38.061Z,3.30
2022-08-29T07:24:07.343Z,3.03
2022-08-29T07:26:38.702Z,3.40
2022-08-29T07:29:07.882Z,3.22
2022-08-29T07:31:35.532Z,2.72
2022-08-29T07:34:03.402Z,3.13
2022-08-29T07:36:31.874Z,2.75
2022-08-29T07:38:59.448Z,2.65
2022-08-29T07:41:28.611Z,3.28
2022-08-29T07:43:56.175Z,2.83
2022-08-29T07:46:25.561Z,3.10
2022-08-29T07:48:53.785Z,2.88
2022-08-29T07:51:23.367Z,3.25
2022-08-29T07:53:51.272Z,3.60
2022-08-29T07:56:19.896Z,3.08
2022-08-29T07:58:48.813Z,3.25
2022-08-29T08:01:20.811Z,2.97
2022-08-29T08:03:50.226Z,3.22
2022-08-29T08:06:19.416Z,3.45
2022-08-29T08:08:46.970Z,3.20
2022-08-29T08:11:14.893Z,2.58
2022-08-29T08:13:42.576Z,2.78
2022-08-29T08:16:14.035Z,3.05
2022-08-29T08:18:42.371Z,2.97
2022-08-29T08:21:10.433Z,2.30
2022-08-29T08:23:37.992Z,3.00
2022-08-29T08:26:05.881Z,2.58
2022-08-29T08:28:33.519Z,2.40
2022-08-29T08:31:05.902Z,2.65
2022-08-29T08:33:38.626Z,2.30
2022-08-29T08:36:07.129Z,2.53
2022-08-29T08:38:34.687Z,2.72
2022-08-29T08:41:05.581Z,2.63
2022-08-29T08:43:40.334Z,2.30
2022-08-29T08:46:08.328Z,2.45
2022-08-29T08:48:38.761Z,1.90
2022-08-29T08:51:07.762Z,2.00
2022-08-29T08:53:37.062Z,2.38
2022-08-29T08:56:08.543Z,2.20
2022-08-29T08:58:37.727Z,2.30
2022-08-29T09:01:14.314Z,2.00
2022-08-29T09:04:04.027Z,1.85
2022-08-29T09:06:41.139Z,2.80
2022-08-29T09:09:14.382Z,2.10
2022-08-29T09:11:49.043Z,2.30
2022-08-29T09:14:23.540Z,2.20
2022-08-29T09:16:54.328Z,1.95
2022-08-29T09:19:23.447Z,2.30
2022-08-29T09:21:53.793Z,1.90
2022-08-29T09:24:24.295Z,2.38
2022-08-29T09:26:51.896Z,1.95
2022-08-29T09:29:20.961Z,2.40
2022-08-29T09:32:04.054Z,2.80
2022-08-29T09:34:56.959Z,2.30
2022-08-29T09:37:25.406Z,2.67
2022-08-29T09:39:54.683Z,2.90
2022-08-29T09:42:23.560Z,2.33
2022-08-29T09:44:55.328Z,2.03
2022-08-29T09:47:24.754Z,2.10
2022-08-29T09:50:10.267Z,2.25
2022-08-29T09:52:40.875Z,3.15
2022-08-29T09:55:19.772Z,2.15
2022-08-29T09:57:50.991Z,2.00
2022-08-29T10:00:19.725Z,1.95
2022-08-29T10:02:50.906Z,1.90
2022-08-29T10:05:31.033Z,2.03
2022-08-29T10:07:59.904Z,2.40
2022-08-29T10:10:30.669Z,2.08
2022-08-29T10:13:00.860Z,2.17
2022-08-29T10:15:49.387Z,2.00
2022-08-29T10:18:24.846Z,2.08
2022-08-29T10:20:56.204Z,2.20
2022-08-29T10:23:28.191Z,2.20
2022-08-29T10:25:56.010Z,2.40
2022-08-29T10:28:28.033Z,2.05
2022-08-29T10:30:57.323Z,2.28
2022-08-29T10:33:35.500Z,2.00
2022-08-29T10:36:07.076Z,2.08
2022-08-29T10:38:45.134Z,2.40
2022-08-29T10:41:18.673Z,2.22
2022-08-29T10:43:50.002Z,2.40
2022-08-29T10:46:25.459Z,2.13
2022-08-29T10:49:00.155Z,2.42
2022-08-29T10:51:32.964Z,2.28
2022-08-29T10:54:05.404Z,2.53
2022-08-29T10:56:38.251Z,2.30
2022-08-29T10:59:08.784Z,2.70
2022-08-29T11:01:40.051Z,2.30
2022-08-29T11:04:17.215Z,2.25
2022-08-29T11:06:48.472Z,2.38
2022-08-29T11:09:20.004Z,2.45
2022-08-29T11:11:50.326Z,2.33
2022-08-29T11:14:21.705Z,2.47
2022-08-29T11:16:51.040Z,2.13
2022-08-29T11:19:22.588Z,1.80
2022-08-29T11:21:53.840Z,2.22
2022-08-29T11:24:30.619Z,2.25
2022-08-29T11:27:05.760Z,2.15
2022-08-29T11:29:36.097Z,2.38
2022-08-29T11:32:06.429Z,2.10
2022-08-29T11:34:44.763Z,2.17
2022-08-29T11:37:29.194Z,2.30
2022-08-29T11:40:01.062Z,2.28
2022-08-29T11:45:23.973Z,2.10
2022-08-29T11:48:00.096Z,2.50
2022-08-29T11:50:32.729Z,2.00
2022-08-29T11:53:04.539Z,2.33
2022-08-29T11:55:35.729Z,2.40
2022-08-29T11:58:08.907Z,2.20
2022-08-29T12:00:50.343Z,2.63
2022-08-29T12:03:37.087Z,2.03
2022-08-29T12:06:11.459Z,2.70
2022-08-29T12:08:42.516Z,2.50
2022-08-29T12:11:11.712Z,2.70
2022-08-29T12:14:06.743Z,2.10
2022-08-29T12:16:48.906Z,1.83
2022-08-29T12:19:35.237Z,1.70
2022-08-29T12:22:02.867Z,2.00
2022-08-29T12:24:33.624Z,1.65
2022-08-29T12:27:03.966Z,1.50
2022-08-29T12:29:41.302Z,1.90
2022-08-29T12:32:33.443Z,1.50
2022-08-29T12:35:22.282Z,1.98
2022-08-29T12:37:54.422Z,2.05
2022-08-29T12:40:31.813Z,1.60
2022-08-29T12:43:18.499Z,1.60
2022-08-29T12:45:47.566Z,1.63
2022-08-29T12:48:20.660Z,2.03
2022-08-29T12:50:50.323Z,1.80
2022-08-29T12:53:19.163Z,1.95
2022-08-29T12:55:48.508Z,1.70
2022-08-29T12:58:32.595Z,1.73
2022-08-29T13:01:01.763Z,1.88
2022-08-29T13:03:29.297Z,1.85
2022-08-29T13:06:03.991Z,1.60
2022-08-29T13:08:33.122Z,1.50
2022-08-29T13:11:01.575Z,2.05
2022-08-29T13:13:29.846Z,2.33
2022-08-29T13:16:00.371Z,1.70
2022-08-29T13:18:29.831Z,2.05
2022-08-29T13:21:21.433Z,1.70
2022-08-29T13:23:58.391Z,1.85
2022-08-29T13:26:27.656Z,1.58
2022-08-29T13:28:56.201Z,1.80
2022-08-29T13:31:26.222Z,1.45
2022-08-29T13:34:09.534Z,1.50
2022-08-29T13:36:39.130Z,1.63
2022-08-29T13:39:31.409Z,1.60
2022-08-29T13:42:14.703Z,1.63
2022-08-29T13:44:53.997Z,1.50
2022-08-29T13:47:22.476Z,1.80
2022-08-29T13:49:51.637Z,2.17
2022-08-29T13:52:19.539Z,2.05
2022-08-29T13:54:47.183Z,1.92
2022-08-29T13:57:15.573Z,1.88
2022-08-29T13:59:43.264Z,1.95
2022-08-29T14:02:12.685Z,1.70
2022-08-29T14:04:41.472Z,1.80
2022-08-29T14:07:12.716Z,1.75
2022-08-29T14:09:42.692Z,1.63
2022-08-29T14:12:10.808Z,1.95
2022-08-29T14:14:38.389Z,1.98
2022-08-29T14:17:05.917Z,1.90
2022-08-29T14:19:33.719Z,1.65
2022-08-29T14:22:02.419Z,1.73
2022-08-29T14:24:32.793Z,1.90
2022-08-29T14:27:02.158Z,3.53
2022-08-29T14:29:30.845Z,3.38
2022-08-29T14:31:58.708Z,2.40
2022-08-29T14:34:30.900Z,2.40
2022-08-29T14:37:00.605Z,1.90
2022-08-29T14:39:28.321Z,1.80
2022-08-29T14:41:57.374Z,2.28
2022-08-29T14:44:25.350Z,2.40
2022-08-29T14:46:52.892Z,2.00
2022-08-29T14:49:20.555Z,2.10
2022-08-29T14:51:48.670Z,2.00
2022-08-29T14:54:16.744Z,1.95
2022-08-29T14:56:49.285Z,1.95
2022-08-29T14:59:19.254Z,1.95
2022-08-29T15:01:52.971Z,2.05
2022-08-29T15:04:21.720Z,2.35
2022-08-29T15:07:04.133Z,2.30
2022-08-29T15:09:31.663Z,1.70
2022-08-29T15:11:59.610Z,2.20
2022-08-29T15:14:28.523Z,2.75
2022-08-29T15:16:55.988Z,2.22
2022-08-29T15:22:11.507Z,1.77
2022-08-29T15:24:39.147Z,2.13
2022-08-29T15:27:06.734Z,2.15
2022-08-29T15:29:37.227Z,2.08
2022-08-29T15:32:05.589Z,2.45
2022-08-29T15:34:33.474Z,2.15
2022-08-29T15:37:01.483Z,2.65
2022-08-29T15:39:29.970Z,2.40
2022-08-29T15:41:58.012Z,1.83
2022-08-29T15:44:25.571Z,1.90
2022-08-29T15:46:57.692Z,1.95
2022-08-29T15:49:25.996Z,1.98
2022-08-29T15:51:53.759Z,1.70
2022-08-29T15:54:21.579Z,1.95
2022-08-29T15:56:49.149Z,1.92
2022-08-29T15:59:17.211Z,2.10
2022-08-29T16:01:45.743Z,1.83
2022-08-29T16:04:15.915Z,1.80
2022-08-29T16:06:43.474Z,2.03
2022-08-29T16:09:15.668Z,1.80
2022-08-29T16:11:44.249Z,2.30
2022-08-29T16:16:59.607Z,2.08
2022-08-29T16:19:29.344Z,1.65
2022-08-29T16:21:59.800Z,2.00
2022-08-29T16:24:28.067Z,2.15
2022-08-29T16:26:55.754Z,1.85
2022-08-29T16:29:26.620Z,1.70
2022-08-29T16:31:57.861Z,1.85
2022-08-29T16:34:26.237Z,1.30
2022-08-29T16:36:57.686Z,1.80
2022-08-29T16:39:25.335Z,2.05
2022-08-29T16:41:55.092Z,2.15
2022-08-29T16:44:22.885Z,2.63
2022-08-29T16:46:50.497Z,2.03
2022-08-29T16:49:18.385Z,1.73
2022-08-29T16:51:46.161Z,1.67
2022-08-29T16:54:16.383Z,1.50
2022-08-29T16:56:44.564Z,1.63
2022-08-29T16:59:12.521Z,1.92
2022-08-29T17:01:42.798Z,2.22
2022-08-29T17:04:12.136Z,2.50
2022-08-29T17:06:40.245Z,2.08
2022-08-29T17:09:08.932Z,2.13
2022-08-29T17:11:37.236Z,1.88
2022-08-29T17:14:03.676Z,1.90
2022-08-29T17:16:31.569Z,1.85
2022-08-29T17:18:59.893Z,1.52
2022-08-29T17:21:27.705Z,1.85
2022-08-29T17:23:55.556Z,1.60
2022-08-29T17:26:23.618Z,1.83
2022-08-29T17:28:52.871Z,2.05
2022-08-29T17:31:20.486Z,2.63
2022-08-29T17:33:48.120Z,5.78
2022-08-29T17:36:16.232Z,5.03
2022-08-29T17:38:45.829Z,3.53
2022-08-29T17:41:17.253Z,2.17
2022-08-29T17:43:45.323Z,1.65
2022-08-29T17:46:14.314Z,4.57
2022-08-29T17:48:42.013Z,2.40
2022-08-29T17:51:09.980Z,2.40
2022-08-29T17:53:37.552Z,1.83
2022-08-29T17:56:12.112Z,2.30
2022-08-29T17:58:40.336Z,4.18
2022-08-29T18:01:12.407Z,3.00
2022-08-29T18:03:45.513Z,2.78
2022-08-29T18:06:14.530Z,4.75
2022-08-29T18:08:42.851Z,2.63
2022-08-29T18:11:16.681Z,3.80
2022-08-29T18:13:44.567Z,6.15
2022-08-29T18:16:12.578Z,5.15
2022-08-29T18:18:41.261Z,3.78
2022-08-29T18:21:11.761Z,9.25
2022-08-29T18:23:41.678Z,3.35
2022-08-29T18:26:09.328Z,14.38
2022-08-29T18:28:36.996Z,8.23
2022-08-29T18:31:04.716Z,2.65
2022-08-29T18:33:50.336Z,8.98
2022-08-29T18:36:22.523Z,3.03
2022-08-29T18:38:50.737Z,4.57
2022-08-29T18:41:18.750Z,4.43
2022-08-29T18:43:46.866Z,3.17
2022-08-29T18:46:14.692Z,4.60
2022-08-29T18:48:44.875Z,3.75
2022-08-29T18:51:12.586Z,4.13
2022-08-29T18:53:41.947Z,3.17
2022-08-29T18:56:10.190Z,2.97
2022-08-29T18:58:38.842Z,2.72
2022-08-29T19:01:13.690Z,3.15
2022-08-29T19:03:41.793Z,2.83
2022-08-29T19:06:10.686Z,2.90
2022-08-29T19:08:39.255Z,2.70
2022-08-29T19:11:11.200Z,3.28
2022-08-29T19:13:39.536Z,3.00
2022-08-29T19:16:09.665Z,2.97
2022-08-29T19:18:37.826Z,2.25
2022-08-29T19:21:06.710Z,3.13
2022-08-29T19:23:35.625Z,3.15
2022-08-29T19:26:05.039Z,3.60
2022-08-29T19:28:34.753Z,3.70
2022-08-29T19:31:03.059Z,3.28
2022-08-29T19:33:30.734Z,3.40
2022-08-29T19:35:58.336Z,2.88
2022-08-29T19:38:27.515Z,3.17
2022-08-29T19:40:57.248Z,2.90
2022-08-29T19:43:25.952Z,2.90
2022-08-29T19:45:55.269Z,2.90
2022-08-29T19:48:22.935Z,3.55
2022-08-29T19:50:52.183Z,3.13
2022-08-29T19:53:26.080Z,3.10
2022-08-29T19:55:55.069Z,2.72
2022-08-29T19:58:31.650Z,2.85
2022-08-29T20:01:01.662Z,2.90
2022-08-29T20:03:29.996Z,2.95
2022-08-29T20:05:59.447Z,2.80
2022-08-29T20:08:27.259Z,2.95
2022-08-29T20:10:56.928Z,3.33
2022-08-29T20:13:24.553Z,3.53
2022-08-29T20:15:53.511Z,4.10
2022-08-29T20:18:23.487Z,3.40
2022-08-29T20:20:51.177Z,3.90
2022-08-29T20:23:18.680Z,3.50
2022-08-29T20:25:46.420Z,3.33
2022-08-29T20:28:15.873Z,2.88
2022-08-29T20:30:44.137Z,3.33
2022-08-29T20:33:12.143Z,3.42
2022-08-29T20:35:58.796Z,3.67
2022-08-29T20:38:27.149Z,3.30
2022-08-29T20:40:54.771Z,3.30
2022-08-29T20:43:23.127Z,3.67
2022-08-29T20:45:50.743Z,3.95
2022-08-29T20:48:18.498Z,4.00
2022-08-29T20:50:49.909Z,3.88
2022-08-29T20:53:31.551Z,3.55
2022-08-29T20:56:00.345Z,3.17
2022-08-29T20:58:29.078Z,4.13
2022-08-29T21:00:57.109Z,3.40
2022-08-29T21:03:42.197Z,3.75
2022-08-29T21:06:11.288Z,3.65
2022-08-29T21:08:41.018Z,4.22
2022-08-29T21:11:10.269Z,4.43
2022-08-29T21:13:43.332Z,3.30
2022-08-29T21:16:11.552Z,3.95
2022-08-29T21:18:39.418Z,4.03
2022-08-29T21:21:07.208Z,3.70
2022-08-29T21:23:36.351Z,3.17
2022-08-29T21:26:04.085Z,3.92
2022-08-29T21:28:33.001Z,3.75
2022-08-29T21:31:03.802Z,3.20
2022-08-29T21:33:33.652Z,3.65
2022-08-29T21:36:01.716Z,3.60
2022-08-29T21:38:29.815Z,3.90
2022-08-29T21:40:59.074Z,3.30
2022-08-29T21:43:26.686Z,3.78
2022-08-29T21:45:54.271Z,3.47
2022-08-29T21:48:21.845Z,3.83
2022-08-29T21:50:54.657Z,3.78
2022-08-29T21:53:22.536Z,4.28
2022-08-29T21:55:50.165Z,4.00
2022-08-29T21:58:20.223Z,4.10
2022-08-29T22:00:49.172Z,3.88
2022-08-29T22:03:17.167Z,4.00
2022-08-29T22:05:45.023Z,4.55
2022-08-29T22:08:13.224Z,4.40
2022-08-29T22:10:42.189Z,4.70
2022-08-29T22:13:09.858Z,3.90
2022-08-29T22:15:56.496Z,3.97
2022-08-29T22:18:24.248Z,4.35
2022-08-29T22:20:55.116Z,4.68
2022-08-29T22:23:24.455Z,3.95
2022-08-29T22:25:52.529Z,5.35
2022-08-29T22:28:20.393Z,3.95
2022-08-29T22:30:50.891Z,4.15
2022-08-29T22:33:18.699Z,5.18
2022-08-29T22:35:46.593Z,4.43
2022-08-29T22:38:14.324Z,4.75
2022-08-29T22:40:42.159Z,4.53
2022-08-29T22:43:09.792Z,4.88
2022-08-29T22:45:37.432Z,4.07
2022-08-29T22:48:06.578Z,4.32
2022-08-29T22:50:34.176Z,4.28
2022-08-29T22:53:02.282Z,5.07
2022-08-29T22:57:57.780Z,4.80
2022-08-29T23:00:26.998Z,4.50
2022-08-29T23:02:54.959Z,4.78
2022-08-29T23:05:25.153Z,5.07
2022-08-29T23:07:52.898Z,5.30
2022-08-29T23:10:22.025Z,4.72
2022-08-29T23:12:49.726Z,4.80
2022-08-29T23:15:18.486Z,5.82
2022-08-29T23:17:46.132Z,4.13
2022-08-29T23:20:15.527Z,3.78
2022-08-29T23:22:44.525Z,4.40
2022-08-29T23:25:13.091Z,3.95
2022-08-29T23:27:41.060Z,4.10
2022-08-29T23:30:09.766Z,4.03
2022-08-29T23:32:37.401Z,3.95
2022-08-29T23:35:05.239Z,3.60
2022-08-29T23:37:32.862Z,4.05
2022-08-29T23:40:02.310Z,4.45
2022-08-29T23:42:30.537Z,4.78
2022-08-29T23:44:58.581Z,4.50
2022-08-29T23:47:26.102Z,4.35
2022-08-29T23:49:53.707Z,4.57
2022-08-29T23:52:21.297Z,4.57
2022-08-29T23:54:48.858Z,3.95
2022-08-29T23:57:17.885Z,4.70
